createdAt,value
2016-08-11T03:01:03.857Z,36.34
2016-08-11T03:01:29.407Z,36.63
2016-08-11T03:01:54.993Z,36.63
2016-08-11T03:02:20.548Z,36.63
2016-08-11T03:02:46.112Z,36.9
2016-08-11T03:03:11.683Z,36.44
2016-08-11T03:03:37.244Z,36.53
2016-08-11T03:04:02.772Z,36.53
2016-08-11T03:04:28.345Z,36.82
2016-08-11T03:04:53.910Z,36.63
2016-08-11T03:05:19.465Z,36.63
2016-08-11T03:05:45.101Z,36.44
2016-08-11T03:06:10.681Z,36.44
2016-08-11T03:07:24.162Z,36.34
2016-08-11T03:07:49.718Z,36.63
2016-08-11T03:08:15.274Z,36.53
2016-08-11T03:08:40.864Z,36.82
2016-08-11T03:09:06.518Z,36.26
2016-08-11T03:09:31.984Z,36.16
2016-08-11T03:09:57.539Z,36.44
2016-08-11T03:10:23.101Z,36.53
2016-08-11T03:10:48.654Z,37.02
2016-08-11T03:11:14.228Z,36.82
2016-08-11T03:11:39.777Z,36.82
2016-08-11T03:12:05.330Z,36.72
2016-08-11T03:12:30.877Z,36.72
2016-08-11T03:12:56.448Z,36.53
2016-08-11T03:13:21.996Z,36.34
2016-08-11T03:14:13.167Z,37.02
2016-08-11T03:14:38.735Z,36.92
2016-08-11T03:15:04.313Z,36.92
2016-08-11T03:15:29.871Z,37
2016-08-11T03:15:55.439Z,37.19
2016-08-11T03:16:21.084Z,37.02
2016-08-11T03:16:46.661Z,36.53
2016-08-11T03:17:12.260Z,36.63
2016-08-11T03:17:37.815Z,36.63
2016-08-11T03:18:03.376Z,36.72
2016-08-11T03:18:28.975Z,36.72
2016-08-11T03:18:54.585Z,36.82
2016-08-11T03:19:20.151Z,36.24
2016-08-11T03:19:45.702Z,36.24
2016-08-11T03:20:11.269Z,36.05
2016-08-11T03:20:36.834Z,36.44
2016-08-11T03:21:02.440Z,36.24
2016-08-11T03:21:28.004Z,36.24
2016-08-11T03:21:53.568Z,36.44
2016-08-11T03:22:19.121Z,36.24
2016-08-11T03:22:44.770Z,36.63
2016-08-11T03:23:10.324Z,36.82
2016-08-11T03:23:35.891Z,36.63
2016-08-11T03:24:01.446Z,36.52
2016-08-11T03:24:27.013Z,36.9
2016-08-11T03:24:52.578Z,37.29
2016-08-11T03:25:18.154Z,36.61
2016-08-11T03:25:43.721Z,36.8
2016-08-11T03:26:09.295Z,37.48
2016-08-11T03:26:34.972Z,36.92
2016-08-11T03:27:00.528Z,37
2016-08-11T03:27:26.094Z,36.72
2016-08-11T03:27:51.662Z,36.8
2016-08-11T03:28:17.215Z,37
2016-08-11T03:28:42.756Z,36.8
2016-08-11T03:29:08.334Z,36.71
2016-08-11T03:29:33.899Z,37
2016-08-11T03:29:59.451Z,36.61
2016-08-11T03:30:25.033Z,37
2016-08-11T03:30:50.596Z,37.19
2016-08-11T03:31:16.185Z,37
2016-08-11T03:31:41.759Z,36.92
2016-08-11T03:32:07.334Z,36.82
2016-08-11T03:32:32.905Z,36.72
2016-08-11T03:32:58.469Z,36.42
2016-08-11T03:33:24.036Z,37
2016-08-11T03:33:49.756Z,36.63
2016-08-11T03:34:15.342Z,36.71
2016-08-11T03:34:40.916Z,36.9
2016-08-11T03:35:06.469Z,37.1
2016-08-11T03:35:32.100Z,36.8
2016-08-11T03:35:57.694Z,36.52
2016-08-11T03:36:23.303Z,36.61
2016-08-11T03:36:48.853Z,37.19
2016-08-11T03:37:14.426Z,37
2016-08-11T03:37:40.013Z,36.9
2016-08-11T03:38:05.575Z,36.53
2016-08-11T03:38:31.231Z,36.92
2016-08-11T03:38:56.811Z,36.9
2016-08-11T03:39:22.388Z,36.8
2016-08-11T03:39:47.966Z,36.72
2016-08-11T03:40:13.565Z,36.52
2016-08-11T03:40:39.140Z,36.9
2016-08-11T03:41:04.714Z,36.9
2016-08-11T03:41:30.306Z,36.9
2016-08-11T03:41:55.925Z,36.9
2016-08-11T03:42:21.492Z,36.9
2016-08-11T03:42:47.060Z,36.9
2016-08-11T03:43:12.628Z,37.1
2016-08-11T03:43:38.206Z,36.9
2016-08-11T03:44:03.774Z,36.82
2016-08-11T03:44:29.340Z,36.82
2016-08-11T03:44:54.896Z,36.44
2016-08-11T03:45:20.538Z,36.34
2016-08-11T03:45:46.140Z,36.72
2016-08-11T03:46:11.702Z,36.72
2016-08-11T03:46:37.285Z,36.71
2016-08-11T03:47:02.857Z,37
2016-08-11T03:47:28.473Z,37.1
2016-08-11T03:47:54.122Z,37.29
2016-08-11T03:48:19.618Z,37.19
2016-08-11T03:48:45.191Z,36.9
2016-08-11T03:49:10.756Z,37.1
2016-08-11T03:49:36.309Z,36.92
2016-08-11T03:50:01.874Z,36.72
2016-08-11T03:50:27.469Z,36.82
2016-08-11T03:50:53.055Z,36.72
2016-08-11T03:51:18.624Z,36.53
2016-08-11T03:51:44.178Z,36.82
2016-08-11T03:52:09.797Z,36.52
2016-08-11T03:52:35.358Z,36.9
2016-08-11T03:53:00.938Z,37
2016-08-11T03:53:26.625Z,36.72
2016-08-11T03:53:52.176Z,36.72
2016-08-11T03:54:17.724Z,36.53
2016-08-11T03:54:43.304Z,36.44
2016-08-11T03:55:08.876Z,36.53
2016-08-11T03:55:34.447Z,36.05
2016-08-11T03:56:00.024Z,36.34
2016-08-11T03:56:25.589Z,36.82
2016-08-11T03:56:51.150Z,36.24
2016-08-11T03:57:16.794Z,36.44
2016-08-11T03:57:42.346Z,36.8
2016-08-11T03:58:07.904Z,37
2016-08-11T03:58:33.473Z,36.8
2016-08-11T03:58:59.105Z,37
2016-08-11T03:59:24.682Z,37.1
2016-08-11T03:59:50.244Z,37
2016-08-11T04:00:15.817Z,37
2016-08-11T04:00:41.372Z,37.02
2016-08-11T04:01:06.976Z,37.12
2016-08-11T04:01:32.547Z,36.82
2016-08-11T04:01:58.086Z,36.92
2016-08-11T04:02:23.651Z,36.72
2016-08-11T04:02:49.242Z,36.53
2016-08-11T04:03:14.807Z,36.53
2016-08-11T04:03:40.370Z,36.92
2016-08-11T04:04:05.944Z,36.82
2016-08-11T04:04:31.503Z,36.92
2016-08-11T04:04:57.050Z,37.02
2016-08-11T04:05:22.628Z,37.02
2016-08-11T04:05:48.185Z,37.21
2016-08-11T04:06:13.763Z,37.29
2016-08-11T04:06:39.345Z,37.58
2016-08-11T04:07:04.905Z,37.58
2016-08-11T04:07:30.472Z,37.67
2016-08-11T04:07:56.023Z,37.7
2016-08-11T04:08:21.592Z,37.4
2016-08-11T04:08:47.163Z,37.3
2016-08-11T04:09:12.716Z,36.92
2016-08-11T04:09:38.560Z,37.3
2016-08-11T04:10:04.130Z,37.4
2016-08-11T04:10:29.682Z,37.4
2016-08-11T04:10:55.260Z,37.5
2016-08-11T04:11:20.933Z,37.4
2016-08-11T04:11:46.506Z,37.5
2016-08-11T04:12:12.064Z,37.88
2016-08-11T04:12:37.743Z,37.7
2016-08-11T04:13:03.326Z,37.79
2016-08-11T04:13:28.896Z,37.6
2016-08-11T04:14:20.095Z,37.5
2016-08-11T04:14:45.669Z,37.4
2016-08-11T04:15:11.263Z,37.5
2016-08-11T04:15:36.837Z,37.4
2016-08-11T04:16:02.400Z,37.7
2016-08-11T04:16:27.945Z,37.6
2016-08-11T04:16:53.540Z,37.6
2016-08-11T04:17:19.095Z,37.7
2016-08-11T04:17:44.709Z,37.7
2016-08-11T04:18:10.284Z,37.6
2016-08-11T04:18:35.937Z,37.7
2016-08-11T04:19:01.521Z,36.92
2016-08-11T04:19:27.067Z,37.04
2016-08-11T04:19:52.620Z,36.65
2016-08-11T04:20:18.328Z,36.92
2016-08-11T04:20:43.963Z,36.94
2016-08-11T04:21:09.568Z,37.23
2016-08-11T04:21:35.117Z,37.32
2016-08-11T04:22:00.698Z,36.94
2016-08-11T04:22:26.264Z,37.23
2016-08-11T04:22:51.824Z,36.92
2016-08-11T04:23:17.451Z,37.21
2016-08-11T04:23:43.024Z,37.32
2016-08-11T04:24:08.628Z,37.04
2016-08-11T04:24:34.145Z,36.92
2016-08-11T04:24:59.719Z,36.74
2016-08-11T04:25:25.281Z,37.02
2016-08-11T04:25:50.928Z,37.7
2016-08-11T04:26:16.491Z,37.7
2016-08-11T04:26:42.064Z,37.7
2016-08-11T04:27:07.618Z,37.4
2016-08-11T04:27:33.163Z,37.04
2016-08-11T04:27:58.727Z,37.12
2016-08-11T04:28:24.292Z,37.6
2016-08-11T04:28:49.863Z,37.42
2016-08-11T04:29:15.498Z,37.42
2016-08-11T04:30:22.793Z,36.92
2016-08-11T04:30:48.371Z,37.5
2016-08-11T04:31:13.987Z,37.6
2016-08-11T04:31:39.556Z,37.4
2016-08-11T04:32:05.206Z,37.6
2016-08-11T04:32:30.765Z,37.4
2016-08-11T04:32:56.334Z,37.32
2016-08-11T04:33:21.988Z,36.92
2016-08-11T04:33:47.517Z,37.04
2016-08-11T04:34:13.192Z,36.82
2016-08-11T04:34:38.752Z,36.84
2016-08-11T04:35:04.315Z,37.42
2016-08-11T04:35:29.878Z,37.13
2016-08-11T04:35:55.443Z,37.23
2016-08-11T04:36:21.004Z,36.84
2016-08-11T04:36:46.576Z,37.13
2016-08-11T04:37:12.202Z,37.04
2016-08-11T04:37:37.766Z,37.13
2016-08-11T04:38:03.322Z,37.02
2016-08-11T04:38:28.899Z,37.21
2016-08-11T04:38:54.577Z,37.4
2016-08-11T04:39:20.147Z,37.62
2016-08-11T04:39:45.723Z,37.5
2016-08-11T04:40:11.350Z,37.7
2016-08-11T04:40:36.947Z,37.7
2016-08-11T04:41:02.527Z,37.52
2016-08-11T04:41:28.137Z,37.5
2016-08-11T04:41:53.688Z,37.79
2016-08-11T04:42:19.252Z,37.6
2016-08-11T04:42:44.824Z,37.79
2016-08-11T04:43:10.396Z,38.16
2016-08-11T04:43:35.968Z,38.35
2016-08-11T04:44:01.530Z,38.64
2016-08-11T04:44:27.204Z,38.45
2016-08-11T04:44:52.779Z,37.96
2016-08-11T04:45:18.347Z,37.58
2016-08-11T04:45:43.902Z,37.87
2016-08-11T04:46:09.485Z,37.87
2016-08-11T04:46:35.048Z,37.67
2016-08-11T04:47:00.749Z,36.9
2016-08-11T04:47:26.327Z,37.19
2016-08-11T04:47:51.944Z,36.9
2016-08-11T04:48:17.557Z,36.61
2016-08-11T04:48:43.136Z,36.52
2016-08-11T04:49:08.720Z,36.71
2016-08-11T04:49:34.283Z,36.61
2016-08-11T04:50:00.009Z,36.61
2016-08-11T04:50:25.602Z,36.03
2016-08-11T04:50:51.168Z,35.64
2016-08-11T04:51:16.745Z,35.57
2016-08-11T04:51:42.334Z,35.36
2016-08-11T04:52:07.904Z,35.26
2016-08-11T04:52:33.474Z,35.28
2016-08-11T04:52:59.167Z,35.16
2016-08-11T04:53:24.721Z,34.87
2016-08-11T04:53:50.415Z,34.78
2016-08-11T04:54:15.973Z,34.48
2016-08-11T04:54:41.543Z,34.58
2016-08-11T04:55:07.132Z,34.48
2016-08-11T04:55:32.721Z,34.2
2016-08-11T04:55:58.276Z,34.1
2016-08-11T04:56:23.855Z,34.29
2016-08-11T04:56:49.447Z,34.1
2016-08-11T04:57:15.016Z,34.2
2016-08-11T04:57:40.579Z,33.91
2016-08-11T04:58:06.163Z,33.62
2016-08-11T04:58:31.732Z,34.1
2016-08-11T04:59:22.902Z,33.62
2016-08-11T04:59:48.474Z,34.2
2016-08-11T05:00:14.034Z,33.62
2016-08-11T05:00:39.623Z,33.91
2016-08-11T05:01:05.233Z,34
2016-08-11T05:01:30.797Z,34
2016-08-11T05:01:56.354Z,34
2016-08-11T05:02:21.912Z,33.8
2016-08-11T05:02:47.582Z,33.62
2016-08-11T05:03:13.150Z,34.08
2016-08-11T05:03:38.724Z,33.89
2016-08-11T05:04:04.284Z,33.89
2016-08-11T05:04:29.916Z,33.98
2016-08-11T05:04:55.483Z,34.18
2016-08-11T05:05:21.049Z,34.18
2016-08-11T05:05:46.724Z,33.91
2016-08-11T05:06:12.356Z,33.89
2016-08-11T05:06:37.918Z,33.72
2016-08-11T05:07:03.476Z,33.4
2016-08-11T05:07:29.063Z,33.62
2016-08-11T05:07:54.713Z,33.52
2016-08-11T05:08:20.282Z,33.5
2016-08-11T05:08:45.854Z,33.7
2016-08-11T05:09:11.424Z,33.89
2016-08-11T05:09:37.198Z,33.72
2016-08-11T05:10:02.847Z,33.52
2016-08-11T05:10:28.422Z,33.62
2016-08-11T05:10:54.002Z,33.33
2016-08-11T05:11:19.579Z,33.23
2016-08-11T05:11:45.137Z,33.23
2016-08-11T05:12:10.718Z,33.4
2016-08-11T05:12:36.311Z,33.6
2016-08-11T05:13:01.901Z,33.5
2016-08-11T05:13:27.461Z,33.6
2016-08-11T05:13:53.017Z,33.31
2016-08-11T05:14:18.590Z,33.7
2016-08-11T05:14:44.167Z,33.6
2016-08-11T05:15:09.740Z,33.6
2016-08-11T05:15:35.314Z,33.31
2016-08-11T05:16:00.895Z,33.22
2016-08-11T05:16:26.474Z,33.6
2016-08-11T05:16:52.133Z,33.39
2016-08-11T05:17:17.694Z,33.68
2016-08-11T05:17:43.271Z,33.6
2016-08-11T05:18:08.845Z,33.5
2016-08-11T05:18:34.424Z,33.78
2016-08-11T05:19:00.011Z,33.78
2016-08-11T05:19:25.586Z,33.87
2016-08-11T05:19:51.171Z,34.06
2016-08-11T05:20:16.753Z,33.87
2016-08-11T05:20:42.364Z,34.16
2016-08-11T05:21:07.931Z,33.97
2016-08-11T05:21:33.577Z,34.16
2016-08-11T05:21:59.097Z,33.97
2016-08-11T05:22:24.663Z,33.68
2016-08-11T05:22:50.222Z,33.58
2016-08-11T05:23:15.798Z,33.78
2016-08-11T05:23:41.364Z,33.58
2016-08-11T05:24:06.956Z,33.58
2016-08-11T05:24:32.496Z,33.78
2016-08-11T05:24:58.090Z,33.87
2016-08-11T05:25:23.664Z,33.68
2016-08-11T05:25:49.214Z,33.39
2016-08-11T05:26:14.807Z,33.68
2016-08-11T05:26:40.468Z,33.58
2016-08-11T05:27:06.074Z,33.58
2016-08-11T05:27:31.644Z,33.68
2016-08-11T05:27:57.284Z,33.48
2016-08-11T05:28:22.881Z,33.39
2016-08-11T05:28:48.458Z,33.87
2016-08-11T05:29:14.022Z,33.76
2016-08-11T05:29:39.663Z,33.57
2016-08-11T05:30:05.274Z,33.76
2016-08-11T05:30:30.854Z,33.57
2016-08-11T05:30:56.431Z,33.66
2016-08-11T05:31:21.993Z,33.66
2016-08-11T05:31:47.545Z,33.87
2016-08-11T05:32:13.103Z,33.76
2016-08-11T05:32:38.725Z,33.86
2016-08-11T05:33:04.295Z,34.05
2016-08-11T05:33:29.862Z,33.86
2016-08-11T05:33:55.440Z,33.95
2016-08-11T05:34:20.994Z,34.24
2016-08-11T05:34:46.559Z,34.05
2016-08-11T05:35:12.223Z,34.24
2016-08-11T05:35:37.791Z,34.24
2016-08-11T05:36:03.359Z,34.34
2016-08-11T05:36:28.932Z,34.44
2016-08-11T05:36:54.502Z,34.14
2016-08-11T05:37:20.075Z,33.95
2016-08-11T05:37:45.639Z,34.05
2016-08-11T05:38:11.204Z,34.05
2016-08-11T05:38:36.764Z,34.14
2016-08-11T05:39:02.337Z,34.05
2016-08-11T05:39:27.926Z,33.95
2016-08-11T05:39:53.569Z,34.05
2016-08-11T05:40:19.235Z,34.05
2016-08-11T05:40:44.832Z,33.95
2016-08-11T05:41:10.391Z,33.95
2016-08-11T05:41:36.077Z,34.14
2016-08-11T05:42:01.643Z,33.57
2016-08-11T05:42:27.237Z,33.76
2016-08-11T05:42:52.882Z,33.48
2016-08-11T05:43:18.456Z,33.68
2016-08-11T05:43:44.024Z,33.2
2016-08-11T05:44:09.691Z,33.39
2016-08-11T05:44:35.255Z,33.48
2016-08-11T05:45:00.815Z,33.1
2016-08-11T05:45:26.397Z,33.68
2016-08-11T05:45:51.953Z,32.91
2016-08-11T05:46:17.523Z,33.2
2016-08-11T05:46:43.093Z,33.29
2016-08-11T05:47:08.655Z,33.1
2016-08-11T05:47:34.247Z,33
2016-08-11T05:47:59.818Z,33.39
2016-08-11T05:48:25.405Z,33.09
2016-08-11T05:48:50.977Z,33.37
2016-08-11T05:49:16.539Z,33.37
2016-08-11T05:49:42.192Z,33.76
2016-08-11T05:50:07.754Z,33.86
2016-08-11T05:50:33.328Z,33.66
2016-08-11T05:50:59.012Z,34.05
2016-08-11T05:51:24.574Z,34.14
2016-08-11T05:51:54.294Z,33.86
2016-08-11T05:52:19.865Z,34.05
2016-08-11T05:52:46.007Z,34.14
2016-08-11T05:53:11.578Z,34.05
2016-08-11T05:53:37.143Z,33.95
2016-08-11T05:54:03.364Z,34.14
2016-08-11T05:54:28.945Z,33.86
2016-08-11T05:54:55.146Z,34.05
2016-08-11T05:55:20.776Z,33.58
2016-08-11T05:55:46.374Z,35.22
2016-08-11T05:56:12.608Z,35.32
2016-08-11T05:56:38.159Z,34.84
2016-08-11T05:57:04.334Z,34.74
2016-08-11T05:57:29.946Z,34.66
2016-08-11T05:57:56.132Z,34.76
2016-08-11T05:58:21.710Z,34.56
2016-08-11T05:58:47.408Z,34.18
2016-08-11T05:59:39.020Z,34.38
2016-08-11T06:00:05.267Z,34.86
2016-08-11T06:00:30.840Z,35.34
2016-08-11T06:01:39.126Z,35.92
2016-08-11T06:02:04.685Z,36.59
2016-08-11T06:02:30.248Z,35.63
2016-08-11T06:02:55.807Z,35.24
2016-08-11T06:03:21.373Z,35.05
2016-08-11T06:03:47.059Z,34.95
2016-08-11T06:04:12.621Z,34.76
2016-08-11T06:04:38.190Z,34.66
2016-08-11T06:05:03.738Z,34.47
2016-08-11T06:05:29.321Z,34.29
2016-08-11T06:05:55.700Z,34.1
2016-08-11T06:06:21.400Z,34
2016-08-11T06:06:46.966Z,34.2
2016-08-11T06:07:12.534Z,33.72
2016-08-11T06:07:38.093Z,33.81
2016-08-11T06:08:03.681Z,33.72
2016-08-11T06:08:29.256Z,33.81
2016-08-11T06:08:54.827Z,34.86
2016-08-11T06:09:20.397Z,34.76
2016-08-11T06:09:45.969Z,34.56
2016-08-11T06:10:11.555Z,34.76
2016-08-11T06:10:37.135Z,34.66
2016-08-11T06:11:02.684Z,34.86
2016-08-11T06:11:28.263Z,34.95
2016-08-11T06:11:53.820Z,35.14
2016-08-11T06:12:19.395Z,35.63
2016-08-11T06:12:44.955Z,35.63
2016-08-11T06:13:10.534Z,35.24
2016-08-11T06:13:36.094Z,35.24
2016-08-11T06:14:01.755Z,34.95
2016-08-11T06:14:27.316Z,34.66
2016-08-11T06:14:52.896Z,34.66
2016-08-11T06:15:18.445Z,34.56
2016-08-11T06:15:44.074Z,34.39
2016-08-11T06:16:09.655Z,34.29
2016-08-11T06:16:35.240Z,33.91
2016-08-11T06:17:00.845Z,34.1
2016-08-11T06:17:26.415Z,34.1
2016-08-11T06:17:51.980Z,34
2016-08-11T06:18:17.535Z,33.81
2016-08-11T06:18:43.128Z,33.62
2016-08-11T06:19:08.775Z,33.52
2016-08-11T06:19:34.337Z,33.42
2016-08-11T06:19:59.915Z,33.14
2016-08-11T06:20:25.479Z,33.72
2016-08-11T06:21:38.991Z,33.62
2016-08-11T06:22:04.556Z,33.72
2016-08-11T06:22:30.104Z,33.52
2016-08-11T06:22:55.715Z,33.62
2016-08-11T06:23:21.286Z,33.42
2016-08-11T06:23:46.850Z,33.62
2016-08-11T06:24:12.469Z,34
2016-08-11T06:24:38.015Z,34
2016-08-11T06:25:03.587Z,34.29
2016-08-11T06:25:29.144Z,34.66
2016-08-11T06:25:54.716Z,34.86
2016-08-11T06:26:20.282Z,35.05
2016-08-11T06:26:45.925Z,35.24
2016-08-11T06:27:11.494Z,35.24
2016-08-11T06:27:37.089Z,35.53
2016-08-11T06:28:02.701Z,35.14
2016-08-11T06:29:00.766Z,34.76
2016-08-11T06:29:26.338Z,34.56
2016-08-11T06:29:51.908Z,34.66
2016-08-11T06:30:17.556Z,35.14
2016-08-11T06:30:43.104Z,35.34
2016-08-11T06:31:08.799Z,34.95
2016-08-11T06:31:34.360Z,34.47
2016-08-11T06:31:59.935Z,34.1
2016-08-11T06:32:25.489Z,34.48
2016-08-11T06:32:51.087Z,34.38
2016-08-11T06:33:16.721Z,34.39
2016-08-11T06:33:42.275Z,34.58
2016-08-11T06:34:07.827Z,34.66
2016-08-11T06:34:33.369Z,34.58
2016-08-11T06:34:58.950Z,34
2016-08-11T06:35:24.532Z,34.76
2016-08-11T06:35:50.342Z,34.56
2016-08-11T06:36:15.935Z,34
2016-08-11T06:36:41.545Z,34
2016-08-11T06:37:07.107Z,34.56
2016-08-11T06:37:32.663Z,34.48
2016-08-11T06:37:58.227Z,34.86
2016-08-11T06:38:23.784Z,35.05
2016-08-11T06:38:49.456Z,35.14
2016-08-11T06:39:14.994Z,35.24
2016-08-11T06:39:40.556Z,35.34
2016-08-11T06:40:06.119Z,35.14
2016-08-11T06:40:31.669Z,35.63
2016-08-11T06:40:57.218Z,35.24
2016-08-11T06:41:22.928Z,35.34
2016-08-11T06:41:48.494Z,35.26
2016-08-11T06:42:14.052Z,35.16
2016-08-11T06:42:39.590Z,35.24
2016-08-11T06:43:05.140Z,35.24
2016-08-11T06:43:30.702Z,35.34
2016-08-11T06:43:56.267Z,35.53
2016-08-11T06:44:47.387Z,36.11
2016-08-11T06:45:12.940Z,36.4
2016-08-11T06:45:38.504Z,36.79
2016-08-11T06:46:04.095Z,36.88
2016-08-11T06:46:29.674Z,36.4
2016-08-11T06:46:55.238Z,36.59
2016-08-11T06:47:20.815Z,36.79
2016-08-11T06:47:46.383Z,36.59
2016-08-11T06:48:11.939Z,36.59
2016-08-11T06:48:37.516Z,36.59
2016-08-11T06:49:03.127Z,36.88
2016-08-11T06:49:28.695Z,36.98
2016-08-11T06:49:54.265Z,37.08
2016-08-11T06:50:19.835Z,37.17
2016-08-11T06:50:45.401Z,37.37
2016-08-11T06:51:10.942Z,36.98
2016-08-11T06:51:36.550Z,37.17
2016-08-11T06:52:02.121Z,36.79
2016-08-11T06:52:27.694Z,37.08
2016-08-11T06:52:53.241Z,37.17
2016-08-11T06:53:18.840Z,37.37
2016-08-11T06:53:44.400Z,37.17
2016-08-11T06:54:09.974Z,37.08
2016-08-11T06:54:35.627Z,36.88
2016-08-11T06:55:01.205Z,36.98
2016-08-11T06:55:26.768Z,36.98
2016-08-11T06:55:52.333Z,36.79
2016-08-11T06:56:17.898Z,37.08
2016-08-11T06:56:43.505Z,37.56
2016-08-11T06:57:09.082Z,37.75
2016-08-11T06:57:34.685Z,37.65
2016-08-11T06:58:00.274Z,37.75
2016-08-11T06:58:25.844Z,37.17
2016-08-11T06:58:51.415Z,37.27
2016-08-11T06:59:42.559Z,37.37
2016-08-11T07:00:08.124Z,37.56
2016-08-11T07:00:33.672Z,37.65
2016-08-11T07:00:59.246Z,37.65
2016-08-11T07:01:24.804Z,37.27
2016-08-11T07:01:50.369Z,37.27
2016-08-11T07:02:15.958Z,37.65
2016-08-11T07:02:41.499Z,37.65
2016-08-11T07:03:07.066Z,37.85
2016-08-11T07:03:32.631Z,37.75
2016-08-11T07:03:58.204Z,37.85
2016-08-11T07:04:23.773Z,37.85
2016-08-11T07:04:49.341Z,37.85
2016-08-11T07:05:14.911Z,37.85
2016-08-11T07:05:40.473Z,37.75
2016-08-11T07:06:06.036Z,37.75
2016-08-11T07:06:31.596Z,37.85
2016-08-11T07:06:57.147Z,37.85
2016-08-11T07:07:22.729Z,37.65
2016-08-11T07:07:48.328Z,37.65
2016-08-11T07:08:13.885Z,37.27
2016-08-11T07:08:39.497Z,37.85
2016-08-11T07:09:05.065Z,37.65
2016-08-11T07:09:30.692Z,37.75
2016-08-11T07:09:56.264Z,37.95
2016-08-11T07:10:21.840Z,37.85
2016-08-11T07:10:47.502Z,37.85
2016-08-11T07:11:13.072Z,37.85
2016-08-11T07:11:38.628Z,37.75
2016-08-11T07:12:04.180Z,37.75
2016-08-11T07:12:29.770Z,37.75
2016-08-11T07:12:55.335Z,37.75
2016-08-11T07:13:20.892Z,37.75
2016-08-11T07:13:46.459Z,37.75
2016-08-11T07:14:12.023Z,37.75
2016-08-11T07:14:37.574Z,37.65
2016-08-11T07:15:03.139Z,37.37
2016-08-11T07:15:28.704Z,37.29
2016-08-11T07:15:54.274Z,37.65
2016-08-11T07:16:19.838Z,37.56
2016-08-11T07:16:45.394Z,37.56
2016-08-11T07:17:10.948Z,37.75
2016-08-11T07:17:36.520Z,37.77
2016-08-11T07:18:02.101Z,37.65
2016-08-11T07:18:27.671Z,37.75
2016-08-11T07:18:53.268Z,37.75
2016-08-11T07:19:18.877Z,37.65
2016-08-11T07:19:44.443Z,37.95
2016-08-11T07:20:10.001Z,37.95
2016-08-11T07:20:35.627Z,37.95
2016-08-11T07:21:01.241Z,37.85
2016-08-11T07:21:26.881Z,37.85
2016-08-11T07:21:52.454Z,37.65
2016-08-11T07:22:18.015Z,37.85
2016-08-11T07:22:43.560Z,37.95
2016-08-11T07:23:09.226Z,37.75
2016-08-11T07:23:34.790Z,37.65
2016-08-11T07:24:00.343Z,37.95
2016-08-11T07:24:25.927Z,37.95
2016-08-11T07:24:51.665Z,37.95
2016-08-11T07:25:17.239Z,37.85
2016-08-11T07:25:42.830Z,38.04
2016-08-11T07:26:08.396Z,37.95
2016-08-11T07:26:34.011Z,37.85
2016-08-11T07:26:59.593Z,37.95
2016-08-11T07:27:25.129Z,37.95
2016-08-11T07:27:50.768Z,38.23
2016-08-11T07:28:16.299Z,38.14
2016-08-11T07:28:41.856Z,38.04
2016-08-11T07:29:07.423Z,37.95
2016-08-11T07:29:32.982Z,38.04
2016-08-11T07:29:58.525Z,37.95
2016-08-11T07:30:24.177Z,37.85
2016-08-11T07:30:49.748Z,37.65
2016-08-11T07:31:15.407Z,37.75
2016-08-11T07:31:40.950Z,37.65
2016-08-11T07:32:06.495Z,37.85
2016-08-11T07:32:32.038Z,37.85
2016-08-11T07:32:57.589Z,38.04
2016-08-11T07:33:23.146Z,38.14
2016-08-11T07:33:48.680Z,38.23
2016-08-11T07:34:14.267Z,37.95
2016-08-11T07:34:39.835Z,38.14
2016-08-11T07:35:05.390Z,38.14
2016-08-11T07:35:30.973Z,37.95
2016-08-11T07:35:56.530Z,37.95
2016-08-11T07:36:22.108Z,37.65
2016-08-11T07:36:47.652Z,37.65
2016-08-11T07:37:13.219Z,37.85
2016-08-11T07:37:38.772Z,37.85
2016-08-11T07:38:04.310Z,37.95
2016-08-11T07:38:29.855Z,37.85
2016-08-11T07:38:55.401Z,37.95
2016-08-11T07:39:20.961Z,37.46
2016-08-11T07:39:46.534Z,37.37
2016-08-11T07:40:12.078Z,37.67
2016-08-11T07:40:37.616Z,37.75
2016-08-11T07:41:03.199Z,37.85
2016-08-11T07:41:28.756Z,37.85
2016-08-11T07:41:54.288Z,37.95
2016-08-11T07:42:19.854Z,37.85
2016-08-11T07:42:45.480Z,37.75
2016-08-11T07:43:11.067Z,37.85
2016-08-11T07:43:36.616Z,37.85
2016-08-11T07:44:02.205Z,37.67
2016-08-11T07:44:53.379Z,37.46
2016-08-11T07:45:18.936Z,37.48
2016-08-11T07:45:44.505Z,37.29
2016-08-11T07:46:10.063Z,37.58
2016-08-11T07:46:35.637Z,37.77
2016-08-11T07:47:01.238Z,37.77
2016-08-11T07:47:26.777Z,37.37
2016-08-11T07:47:52.323Z,37.48
2016-08-11T07:48:17.975Z,37.58
2016-08-11T07:48:43.442Z,37.77
2016-08-11T07:49:09.006Z,37.48
2016-08-11T07:49:34.572Z,37.38
2016-08-11T07:50:00.170Z,37.67
2016-08-11T07:50:25.767Z,37.67
2016-08-11T07:50:51.344Z,37.58
2016-08-11T07:51:16.917Z,37.58
2016-08-11T07:51:42.481Z,37.58
2016-08-11T07:52:08.143Z,37.58
2016-08-11T07:52:33.696Z,37.58
2016-08-11T07:52:59.252Z,37.58
2016-08-11T07:53:24.823Z,37.27
2016-08-11T07:53:50.497Z,37.29
2016-08-11T07:54:16.052Z,37.85
2016-08-11T07:54:41.651Z,37.75
2016-08-11T07:55:07.238Z,37.75
2016-08-11T07:55:32.817Z,37.87
2016-08-11T07:55:58.363Z,37.75
2016-08-11T07:56:23.932Z,37.75
2016-08-11T07:56:49.494Z,37.85
2016-08-11T07:57:15.060Z,37.85
2016-08-11T07:57:40.632Z,37.75
2016-08-11T07:58:06.254Z,37.65
2016-08-11T07:58:31.826Z,37.65
2016-08-11T07:58:57.395Z,37.85
2016-08-11T07:59:48.729Z,37.85
2016-08-11T08:00:14.294Z,37.75
2016-08-11T08:00:39.856Z,37.85
2016-08-11T08:01:05.417Z,37.75
2016-08-11T08:01:31.038Z,37.95
2016-08-11T08:01:56.600Z,37.75
2016-08-11T08:02:22.171Z,37.75
2016-08-11T08:02:47.744Z,37.75
2016-08-11T08:03:13.506Z,38.04
2016-08-11T08:03:38.959Z,38.04
2016-08-11T08:04:04.527Z,38.04
2016-08-11T08:04:30.104Z,37.85
2016-08-11T08:04:55.776Z,37.85
2016-08-11T08:05:21.344Z,37.95
2016-08-11T08:05:46.895Z,37.85
2016-08-11T08:06:12.513Z,37.65
2016-08-11T08:06:38.056Z,37.27
2016-08-11T08:07:03.602Z,37.58
2016-08-11T08:07:29.165Z,37.65
2016-08-11T08:07:54.735Z,37.29
2016-08-11T08:08:20.294Z,37.95
2016-08-11T08:08:45.883Z,37.95
2016-08-11T08:09:11.473Z,37.67
2016-08-11T08:09:37.035Z,37.29
2016-08-11T08:10:02.594Z,37.75
2016-08-11T08:10:28.156Z,37.65
2016-08-11T08:10:53.765Z,37.95
2016-08-11T08:11:19.322Z,37.65
2016-08-11T08:11:44.891Z,37.65
2016-08-11T08:12:10.463Z,37.85
2016-08-11T08:12:36.052Z,37.75
2016-08-11T08:13:01.668Z,37.85
2016-08-11T08:13:27.232Z,37.95
2016-08-11T08:13:52.884Z,37.85
2016-08-11T08:14:18.476Z,37.87
2016-08-11T08:14:44.035Z,37.46
2016-08-11T08:15:09.588Z,37.17
2016-08-11T08:15:35.281Z,37.65
2016-08-11T08:16:00.839Z,37.58
2016-08-11T08:16:26.392Z,37.38
2016-08-11T08:16:51.964Z,37.48
2016-08-11T08:17:17.543Z,37.46
2016-08-11T08:17:43.114Z,37.29
2016-08-11T08:18:08.660Z,37.27
2016-08-11T08:18:34.231Z,37.27
2016-08-11T08:18:59.807Z,37.46
2016-08-11T08:19:25.365Z,37.75
2016-08-11T08:19:50.942Z,37.75
2016-08-11T08:20:16.519Z,38.04
2016-08-11T08:20:42.089Z,37.77
2016-08-11T08:21:07.654Z,37.75
2016-08-11T08:21:33.209Z,37.67
2016-08-11T08:21:58.783Z,37.38
2016-08-11T08:22:24.356Z,37.27
2016-08-11T08:22:49.943Z,37.27
2016-08-11T08:23:15.523Z,37.75
2016-08-11T08:23:41.130Z,37.58
2016-08-11T08:24:06.708Z,37.85
2016-08-11T08:25:15.139Z,37.56
2016-08-11T08:25:40.715Z,37.48
2016-08-11T08:26:06.289Z,37.29
2016-08-11T08:26:31.946Z,37.48
2016-08-11T08:26:57.521Z,37.29
2016-08-11T08:27:23.095Z,37.58
2016-08-11T08:27:48.658Z,37.29
2016-08-11T08:28:14.222Z,37.27
2016-08-11T08:28:39.793Z,37.77
2016-08-11T08:29:05.391Z,37.85
2016-08-11T08:29:56.524Z,37.65
2016-08-11T08:30:22.093Z,37.75
2016-08-11T08:30:47.645Z,37.85
2016-08-11T08:31:13.213Z,37.75
2016-08-11T08:31:38.837Z,37.46
2016-08-11T08:32:04.432Z,37.37
2016-08-11T08:32:29.993Z,37.48
2016-08-11T08:32:55.552Z,37.48
2016-08-11T08:33:21.133Z,37.29
2016-08-11T08:33:46.705Z,37.67
2016-08-11T08:34:12.268Z,37.77
2016-08-11T08:34:37.831Z,37.85
2016-08-11T08:35:03.386Z,37.75
2016-08-11T08:35:28.949Z,37.75
2016-08-11T08:35:54.525Z,37.75
2016-08-11T08:36:20.088Z,37.95
2016-08-11T08:36:45.663Z,37.95
2016-08-11T08:37:11.236Z,37.96
2016-08-11T08:37:36.811Z,37.95
2016-08-11T08:38:02.374Z,37.75
2016-08-11T08:38:27.934Z,37.65
2016-08-11T08:38:53.513Z,37.75
2016-08-11T08:39:19.133Z,37.75
2016-08-11T08:39:44.692Z,37.85
2016-08-11T08:40:10.262Z,37.77
2016-08-11T08:40:35.832Z,37.67
2016-08-11T08:41:01.403Z,37.48